DARAJ35 DAAT-FKKV
Flight info
| Callsign | DARAJ35 |
|---|---|
| Flight time | N/A |
| Altitude | FL390 |
| Route | TMS UA604 KAN UR986 TAKUM |
| Aircraft | E35L/M-SDFGIRWXY/SB1 |
Departure
| Time | N/A |
|---|---|
| Airport | Aguenar – Hadj Bey Akhamok Airport (DAAT) |
Arrival
| Time | 2026-04-27 23:09 |
|---|---|
| Airport | Bamenda Airport (FKKV) |
| Time | Latitude | Longitude | Altitude | Speed | Heading |
|---|---|---|---|---|---|
| 2026-04-27 21:00 | 22.25287 | 5.67116 | 24634 ft | 399 kts | 162° |
| 2026-04-27 21:00 | 22.22459 | 5.68365 | 25299 ft | 404 kts | 163° |
| 2026-04-27 21:00 | 22.19642 | 5.69609 | 25988 ft | 407 kts | 163° |
| 2026-04-27 21:01 | 22.16775 | 5.70875 | 26808 ft | 407 kts | 163° |
| 2026-04-27 21:01 | 22.13910 | 5.72138 | 27585 ft | 407 kts | 164° |
| 2026-04-27 21:01 | 22.11087 | 5.73383 | 28328 ft | 408 kts | 165° |
| 2026-04-27 21:01 | 22.08229 | 5.74643 | 29090 ft | 407 kts | 165° |
| 2026-04-27 21:02 | 22.05291 | 5.75937 | 29839 ft | 407 kts | 166° |
| 2026-04-27 21:02 | 22.02336 | 5.77239 | 30679 ft | 403 kts | 166° |
| 2026-04-27 21:02 | 21.99393 | 5.78534 | 31525 ft | 398 kts | 167° |
| 2026-04-27 21:02 | 21.96560 | 5.79781 | 32331 ft | 393 kts | 167° |
| 2026-04-27 21:03 | 21.93753 | 5.81015 | 33087 ft | 390 kts | 168° |
| 2026-04-27 21:03 | 21.90934 | 5.82253 | 33856 ft | 389 kts | 168° |
| 2026-04-27 21:03 | 21.88159 | 5.83471 | 34555 ft | 389 kts | 168° |
| 2026-04-27 21:03 | 21.85369 | 5.84698 | 35442 ft | 384 kts | 168° |
| 2026-04-27 21:04 | 21.82612 | 5.85908 | 36259 ft | 381 kts | 169° |
| 2026-04-27 21:04 | 21.79858 | 5.87115 | 36833 ft | 383 kts | 169° |
| 2026-04-27 21:04 | 21.77136 | 5.88309 | 37528 ft | 381 kts | 169° |
| 2026-04-27 21:04 | 21.74457 | 5.89484 | 38215 ft | 378 kts | 169° |
| 2026-04-27 21:05 | 21.71752 | 5.90669 | 38777 ft | 379 kts | 169° |
| 2026-04-27 21:05 | 21.69148 | 5.91806 | 39064 ft | 387 kts | 169° |
| 2026-04-27 21:05 | 21.66399 | 5.93010 | 39076 ft | 396 kts | 168° |
| 2026-04-27 21:06 | 21.60647 | 5.95527 | 39051 ft | 413 kts | 168° |
| 2026-04-27 21:06 | 21.54605 | 5.98169 | 39057 ft | 428 kts | 168° |
| 2026-04-27 21:07 | 21.48352 | 6.00902 | 39045 ft | 440 kts | 167° |
| 2026-04-27 21:07 | 21.42026 | 6.03663 | 39041 ft | 444 kts | 167° |
| 2026-04-27 21:08 | 21.35574 | 6.06476 | 39037 ft | 446 kts | 167° |
| 2026-04-27 21:08 | 21.29217 | 6.09245 | 39025 ft | 448 kts | 167° |
| 2026-04-27 21:09 | 21.22835 | 6.12023 | 39024 ft | 450 kts | 167° |
| 2026-04-27 21:09 | 21.16310 | 6.14859 | 39025 ft | 451 kts | 167° |
| 2026-04-27 21:10 | 21.09787 | 6.17693 | 39026 ft | 453 kts | 167° |
| 2026-04-27 21:10 | 21.03240 | 6.20534 | 39018 ft | 455 kts | 166° |
| 2026-04-27 21:11 | 20.96617 | 6.23405 | 39017 ft | 456 kts | 166° |
| 2026-04-27 21:11 | 20.90081 | 6.26236 | 39021 ft | 457 kts | 166° |
| 2026-04-27 21:12 | 20.83679 | 6.29006 | 39021 ft | 458 kts | 166° |
| 2026-04-27 21:12 | 20.77133 | 6.31836 | 39017 ft | 459 kts | 166° |
| 2026-04-27 21:13 | 20.70521 | 6.34692 | 39014 ft | 459 kts | 166° |
| 2026-04-27 21:13 | 20.63983 | 6.37513 | 39006 ft | 461 kts | 166° |
| 2026-04-27 21:14 | 20.57547 | 6.40287 | 39006 ft | 461 kts | 166° |
| 2026-04-27 21:14 | 20.50942 | 6.43132 | 39000 ft | 462 kts | 166° |
| 2026-04-27 21:15 | 20.44452 | 6.45925 | 38996 ft | 463 kts | 166° |
| 2026-04-27 21:15 | 20.38052 | 6.48676 | 38990 ft | 463 kts | 165° |
| 2026-04-27 21:16 | 20.31429 | 6.51521 | 38979 ft | 464 kts | 165° |
| 2026-04-27 21:16 | 20.24882 | 6.54331 | 38979 ft | 465 kts | 165° |
| 2026-04-27 21:17 | 20.18304 | 6.57151 | 38975 ft | 465 kts | 165° |
| 2026-04-27 21:17 | 20.11698 | 6.59981 | 38970 ft | 466 kts | 165° |
| 2026-04-27 21:18 | 20.05180 | 6.62991 | 38973 ft | 467 kts | 163° |
| 2026-04-27 21:18 | 19.98681 | 6.65994 | 38955 ft | 468 kts | 163° |
| 2026-04-27 21:19 | 19.92140 | 6.69012 | 38953 ft | 467 kts | 163° |
| 2026-04-27 21:19 | 19.85619 | 6.72018 | 38960 ft | 466 kts | 163° |
| 2026-04-27 21:20 | 19.75808 | 6.76536 | 38954 ft | 466 kts | 163° |
| 2026-04-27 21:20 | 19.69250 | 6.79553 | 38951 ft | 466 kts | 163° |
| 2026-04-27 21:21 | 19.62700 | 6.82562 | 38949 ft | 466 kts | 163° |
| 2026-04-27 21:21 | 19.56175 | 6.85558 | 38946 ft | 466 kts | 163° |
| 2026-04-27 21:22 | 19.49639 | 6.88557 | 38947 ft | 466 kts | 163° |
| 2026-04-27 21:22 | 19.43090 | 6.91559 | 38945 ft | 466 kts | 163° |
| 2026-04-27 21:23 | 19.36521 | 6.94567 | 38945 ft | 466 kts | 162° |
| 2026-04-27 21:23 | 19.29916 | 6.97589 | 38944 ft | 466 kts | 162° |
| 2026-04-27 21:24 | 19.23335 | 7.00597 | 38947 ft | 466 kts | 162° |
| 2026-04-27 21:24 | 19.16808 | 7.03579 | 38944 ft | 466 kts | 162° |
| 2026-04-27 21:25 | 19.10257 | 7.06568 | 38944 ft | 466 kts | 162° |
| 2026-04-27 21:25 | 19.03723 | 7.09547 | 38941 ft | 466 kts | 162° |
| 2026-04-27 21:26 | 18.97154 | 7.12540 | 38948 ft | 467 kts | 162° |
| 2026-04-27 21:26 | 18.90589 | 7.15528 | 38950 ft | 467 kts | 162° |
| 2026-04-27 21:27 | 18.84044 | 7.18505 | 38958 ft | 467 kts | 162° |
| 2026-04-27 21:27 | 18.77454 | 7.21499 | 38960 ft | 468 kts | 162° |
| 2026-04-27 21:28 | 18.71013 | 7.24423 | 38965 ft | 468 kts | 162° |
| 2026-04-27 21:28 | 18.64525 | 7.27366 | 38966 ft | 468 kts | 162° |
| 2026-04-27 21:29 | 18.57972 | 7.30336 | 38969 ft | 469 kts | 161° |
| 2026-04-27 21:29 | 18.51423 | 7.33301 | 38969 ft | 469 kts | 161° |
| 2026-04-27 21:30 | 18.44810 | 7.36294 | 38971 ft | 470 kts | 161° |
| 2026-04-27 21:30 | 18.38289 | 7.39242 | 38974 ft | 470 kts | 161° |
| 2026-04-27 21:31 | 18.31687 | 7.42223 | 38973 ft | 470 kts | 161° |
| 2026-04-27 21:31 | 18.25052 | 7.45218 | 38977 ft | 471 kts | 161° |
| 2026-04-27 21:32 | 18.18403 | 7.48216 | 38979 ft | 471 kts | 161° |
| 2026-04-27 21:32 | 18.11785 | 7.51199 | 38985 ft | 471 kts | 161° |
| 2026-04-27 21:33 | 18.05194 | 7.54166 | 38990 ft | 471 kts | 161° |
| 2026-04-27 21:33 | 17.98543 | 7.57158 | 38987 ft | 472 kts | 161° |
| 2026-04-27 21:34 | 17.91873 | 7.60156 | 38993 ft | 472 kts | 161° |
| 2026-04-27 21:34 | 17.85447 | 7.63042 | 38992 ft | 472 kts | 161° |
| 2026-04-27 21:35 | 17.78847 | 7.66003 | 38988 ft | 472 kts | 161° |
| 2026-04-27 21:35 | 17.72220 | 7.68975 | 38987 ft | 472 kts | 161° |
| 2026-04-27 21:36 | 17.65609 | 7.71937 | 38991 ft | 471 kts | 161° |
| 2026-04-27 21:36 | 17.58982 | 7.74903 | 38990 ft | 471 kts | 161° |
| 2026-04-27 21:37 | 17.52377 | 7.77858 | 38995 ft | 470 kts | 161° |
| 2026-04-27 21:37 | 17.45778 | 7.80807 | 38997 ft | 470 kts | 161° |
| 2026-04-27 21:38 | 17.39157 | 7.83764 | 39000 ft | 470 kts | 161° |
| 2026-04-27 21:38 | 17.32535 | 7.86719 | 39001 ft | 469 kts | 160° |
| 2026-04-27 21:39 | 17.25941 | 7.89659 | 39007 ft | 469 kts | 160° |
| 2026-04-27 21:39 | 17.19366 | 7.92589 | 39004 ft | 469 kts | 160° |
| 2026-04-27 21:40 | 17.12891 | 7.95471 | 38995 ft | 469 kts | 160° |
| 2026-04-27 21:40 | 17.06365 | 7.98375 | 38990 ft | 469 kts | 160° |
| 2026-04-27 21:41 | 16.99800 | 8.01277 | 38981 ft | 468 kts | 162° |
| 2026-04-27 21:41 | 16.92901 | 8.02815 | 38987 ft | 459 kts | 179° |
| 2026-04-27 21:42 | 16.85978 | 8.03435 | 38975 ft | 459 kts | 178° |
| 2026-04-27 21:42 | 16.79011 | 8.04105 | 38978 ft | 460 kts | 178° |
| 2026-04-27 21:43 | 16.72003 | 8.04779 | 38976 ft | 460 kts | 178° |
| 2026-04-27 21:43 | 16.64995 | 8.05454 | 38985 ft | 459 kts | 178° |
| 2026-04-27 21:44 | 16.58028 | 8.06124 | 38982 ft | 459 kts | 178° |
| 2026-04-27 21:44 | 16.51050 | 8.06795 | 38982 ft | 460 kts | 178° |
| 2026-04-27 21:45 | 16.44026 | 8.07469 | 38981 ft | 460 kts | 178° |
| 2026-04-27 21:45 | 16.36974 | 8.08146 | 38976 ft | 460 kts | 178° |
| 2026-04-27 21:46 | 16.29924 | 8.08822 | 38979 ft | 458 kts | 178° |
| 2026-04-27 21:46 | 16.22919 | 8.09493 | 38980 ft | 457 kts | 178° |
| 2026-04-27 21:47 | 16.15879 | 8.10167 | 38979 ft | 456 kts | 178° |
| 2026-04-27 21:47 | 16.08814 | 8.10843 | 38976 ft | 455 kts | 178° |
| 2026-04-27 21:48 | 16.01698 | 8.11524 | 38976 ft | 454 kts | 178° |
| 2026-04-27 21:48 | 15.94720 | 8.12191 | 38979 ft | 453 kts | 178° |
| 2026-04-27 21:49 | 15.87786 | 8.12853 | 38971 ft | 452 kts | 178° |
| 2026-04-27 21:49 | 15.80776 | 8.13521 | 38974 ft | 451 kts | 178° |
| 2026-04-27 21:50 | 15.73820 | 8.14185 | 38975 ft | 450 kts | 178° |
| 2026-04-27 21:50 | 15.66839 | 8.14850 | 38973 ft | 450 kts | 178° |
| 2026-04-27 21:51 | 15.59851 | 8.15515 | 38976 ft | 449 kts | 178° |
| 2026-04-27 21:51 | 15.52925 | 8.16174 | 38974 ft | 448 kts | 178° |
| 2026-04-27 21:52 | 15.46020 | 8.16831 | 38977 ft | 448 kts | 177° |
| 2026-04-27 21:52 | 15.39053 | 8.17493 | 38976 ft | 447 kts | 177° |
| 2026-04-27 21:53 | 15.32077 | 8.18156 | 38970 ft | 447 kts | 177° |
| 2026-04-27 21:53 | 15.25107 | 8.18817 | 38974 ft | 447 kts | 177° |
| 2026-04-27 21:54 | 15.18129 | 8.19479 | 38970 ft | 446 kts | 177° |
| 2026-04-27 21:54 | 15.11192 | 8.20136 | 38972 ft | 446 kts | 177° |
| 2026-04-27 21:55 | 15.04265 | 8.20793 | 38972 ft | 446 kts | 177° |
| 2026-04-27 21:55 | 14.97329 | 8.21453 | 38975 ft | 445 kts | 177° |
| 2026-04-27 21:56 | 14.87230 | 8.22412 | 38976 ft | 445 kts | 177° |
| 2026-04-27 21:57 | 14.80328 | 8.23067 | 38970 ft | 445 kts | 177° |
| 2026-04-27 21:57 | 14.73403 | 8.23724 | 38965 ft | 445 kts | 177° |
| 2026-04-27 21:58 | 14.66496 | 8.24379 | 38962 ft | 445 kts | 177° |
| 2026-04-27 21:58 | 14.59620 | 8.25030 | 38968 ft | 445 kts | 177° |
| 2026-04-27 21:59 | 14.52719 | 8.25684 | 38966 ft | 445 kts | 177° |
| 2026-04-27 21:59 | 14.45815 | 8.26337 | 38964 ft | 444 kts | 176° |
| 2026-04-27 22:00 | 14.39039 | 8.26978 | 38966 ft | 444 kts | 177° |
| 2026-04-27 22:00 | 14.32179 | 8.27626 | 38965 ft | 444 kts | 176° |
| 2026-04-27 22:01 | 14.25295 | 8.28276 | 38969 ft | 444 kts | 176° |
| 2026-04-27 22:01 | 14.18434 | 8.28924 | 38962 ft | 444 kts | 176° |
| 2026-04-27 22:02 | 14.11590 | 8.29569 | 38962 ft | 444 kts | 176° |
| 2026-04-27 22:02 | 14.04692 | 8.30220 | 38961 ft | 444 kts | 176° |
| 2026-04-27 22:03 | 13.97834 | 8.30866 | 38951 ft | 444 kts | 176° |
| 2026-04-27 22:03 | 13.91024 | 8.31507 | 38964 ft | 443 kts | 176° |
| 2026-04-27 22:04 | 13.84363 | 8.32134 | 38964 ft | 443 kts | 176° |
| 2026-04-27 22:04 | 13.77562 | 8.32774 | 38959 ft | 444 kts | 176° |
| 2026-04-27 22:05 | 13.70784 | 8.33409 | 38964 ft | 444 kts | 176° |
| 2026-04-27 22:05 | 13.63928 | 8.34052 | 38970 ft | 444 kts | 176° |
| 2026-04-27 22:06 | 13.57135 | 8.34688 | 38969 ft | 444 kts | 176° |
| 2026-04-27 22:06 | 13.50279 | 8.35330 | 38964 ft | 444 kts | 176° |
| 2026-04-27 22:07 | 13.43490 | 8.35965 | 38963 ft | 445 kts | 176° |
| 2026-04-27 22:07 | 13.36601 | 8.36609 | 38965 ft | 445 kts | 176° |
| 2026-04-27 22:08 | 13.29758 | 8.37248 | 38958 ft | 446 kts | 176° |
| 2026-04-27 22:08 | 13.23272 | 8.37853 | 38960 ft | 446 kts | 176° |
| 2026-04-27 22:09 | 13.16580 | 8.38478 | 38956 ft | 447 kts | 176° |
| 2026-04-27 22:09 | 13.09875 | 8.39104 | 38959 ft | 447 kts | 176° |
| 2026-04-27 22:10 | 13.03410 | 8.39736 | 38961 ft | 447 kts | 175° |
| 2026-04-27 22:10 | 12.96991 | 8.40374 | 38957 ft | 448 kts | 175° |
| 2026-04-27 22:11 | 12.90365 | 8.41032 | 38957 ft | 448 kts | 175° |
| 2026-04-27 22:11 | 12.84050 | 8.41659 | 38963 ft | 449 kts | 175° |
| 2026-04-27 22:12 | 12.77499 | 8.42309 | 38959 ft | 449 kts | 175° |
| 2026-04-27 22:12 | 12.70707 | 8.42981 | 38960 ft | 449 kts | 175° |
| 2026-04-27 22:13 | 12.63979 | 8.43647 | 38957 ft | 450 kts | 175° |
| 2026-04-27 22:13 | 12.57153 | 8.44321 | 38955 ft | 450 kts | 175° |
| 2026-04-27 22:14 | 12.50484 | 8.44980 | 38960 ft | 450 kts | 175° |
| 2026-04-27 22:14 | 12.43812 | 8.45639 | 38951 ft | 451 kts | 174° |
| 2026-04-27 22:15 | 12.37107 | 8.46301 | 38958 ft | 451 kts | 174° |
| 2026-04-27 22:15 | 12.30494 | 8.46953 | 38961 ft | 451 kts | 174° |
| 2026-04-27 22:16 | 12.23772 | 8.47616 | 38957 ft | 451 kts | 174° |
| 2026-04-27 22:16 | 12.17126 | 8.48271 | 38962 ft | 451 kts | 174° |
| 2026-04-27 22:17 | 12.10532 | 8.48920 | 38960 ft | 451 kts | 174° |
| 2026-04-27 22:17 | 12.04075 | 8.49640 | 38960 ft | 451 kts | 169° |
| 2026-04-27 22:18 | 11.97834 | 8.51677 | 38963 ft | 450 kts | 159° |
| 2026-04-27 22:18 | 11.91753 | 8.53901 | 38956 ft | 450 kts | 160° |
| 2026-04-27 22:19 | 11.85518 | 8.56167 | 38954 ft | 450 kts | 160° |
| 2026-04-27 22:19 | 11.79064 | 8.58510 | 38946 ft | 450 kts | 160° |
| 2026-04-27 22:20 | 11.72682 | 8.60826 | 38945 ft | 450 kts | 160° |
| 2026-04-27 22:20 | 11.66305 | 8.63140 | 38952 ft | 450 kts | 160° |
| 2026-04-27 22:21 | 11.59908 | 8.65459 | 38956 ft | 449 kts | 160° |
| 2026-04-27 22:21 | 11.53419 | 8.67810 | 38964 ft | 449 kts | 160° |
| 2026-04-27 22:22 | 11.46971 | 8.70146 | 38965 ft | 449 kts | 160° |
| 2026-04-27 22:22 | 11.40540 | 8.72474 | 38974 ft | 449 kts | 161° |
| 2026-04-27 22:23 | 11.34072 | 8.74815 | 38978 ft | 449 kts | 160° |
| 2026-04-27 22:23 | 11.27588 | 8.77160 | 38983 ft | 448 kts | 161° |
| 2026-04-27 22:24 | 11.21130 | 8.79495 | 38990 ft | 448 kts | 161° |
| 2026-04-27 22:24 | 11.14693 | 8.81821 | 38996 ft | 448 kts | 161° |
| 2026-04-27 22:25 | 11.08319 | 8.84118 | 38995 ft | 441 kts | 162° |
| 2026-04-27 22:25 | 11.05141 | 8.85257 | 38995 ft | 425 kts | 162° |
| 2026-04-27 22:25 | 11.02097 | 8.86354 | 38999 ft | 411 kts | 162° |
| 2026-04-27 22:26 | 10.96186 | 8.88499 | 39027 ft | 406 kts | 161° |
| 2026-04-27 22:26 | 10.90195 | 8.90648 | 39050 ft | 410 kts | 161° |
| 2026-04-27 22:27 | 10.84297 | 8.92750 | 39053 ft | 414 kts | 161° |
| 2026-04-27 22:27 | 10.78230 | 8.94910 | 39076 ft | 422 kts | 161° |
| 2026-04-27 22:28 | 10.72018 | 8.97122 | 39077 ft | 429 kts | 161° |
| 2026-04-27 22:28 | 10.65783 | 8.99341 | 39097 ft | 436 kts | 161° |
| 2026-04-27 22:29 | 10.59478 | 9.01583 | 39100 ft | 442 kts | 161° |
| 2026-04-27 22:29 | 10.52973 | 9.03896 | 39107 ft | 447 kts | 161° |
| 2026-04-27 22:30 | 10.46453 | 9.06213 | 39107 ft | 453 kts | 160° |
| 2026-04-27 22:30 | 10.39805 | 9.08574 | 39089 ft | 457 kts | 160° |
| 2026-04-27 22:31 | 10.33078 | 9.10962 | 39096 ft | 462 kts | 160° |
| 2026-04-27 22:31 | 10.26291 | 9.13371 | 39098 ft | 465 kts | 160° |
| 2026-04-27 22:32 | 10.19499 | 9.15780 | 39107 ft | 468 kts | 160° |
| 2026-04-27 22:32 | 10.12676 | 9.18199 | 39092 ft | 461 kts | 160° |
| 2026-04-27 22:33 | 10.06057 | 9.20545 | 39092 ft | 457 kts | 160° |
| 2026-04-27 22:33 | 9.99583 | 9.22839 | 39097 ft | 454 kts | 160° |
| 2026-04-27 22:34 | 9.93152 | 9.25116 | 39098 ft | 451 kts | 160° |
| 2026-04-27 22:34 | 9.86766 | 9.27379 | 39090 ft | 449 kts | 159° |
| 2026-04-27 22:35 | 9.80479 | 9.29760 | 39111 ft | 446 kts | 159° |
| 2026-04-27 22:35 | 9.74084 | 9.32176 | 39091 ft | 444 kts | 159° |
| 2026-04-27 22:36 | 9.67825 | 9.34539 | 39094 ft | 442 kts | 159° |
| 2026-04-27 22:36 | 9.61590 | 9.36893 | 39094 ft | 441 kts | 159° |
| 2026-04-27 22:37 | 9.55281 | 9.39083 | 39080 ft | 440 kts | 160° |
| 2026-04-27 22:37 | 9.48973 | 9.41250 | 39081 ft | 438 kts | 160° |
| 2026-04-27 22:38 | 9.42719 | 9.43399 | 39068 ft | 438 kts | 160° |
| 2026-04-27 22:38 | 9.36401 | 9.45569 | 39038 ft | 437 kts | 160° |
| 2026-04-27 22:39 | 9.30116 | 9.47726 | 39020 ft | 436 kts | 160° |
| 2026-04-27 22:39 | 9.23818 | 9.49888 | 39007 ft | 436 kts | 160° |
| 2026-04-27 22:40 | 9.17549 | 9.52039 | 38983 ft | 435 kts | 160° |
| 2026-04-27 22:40 | 9.11288 | 9.54186 | 38973 ft | 434 kts | 160° |
| 2026-04-27 22:41 | 9.05026 | 9.56332 | 38964 ft | 434 kts | 160° |
| 2026-04-27 22:41 | 8.98717 | 9.58495 | 38954 ft | 433 kts | 160° |
| 2026-04-27 22:42 | 8.92482 | 9.60630 | 38950 ft | 433 kts | 160° |
| 2026-04-27 22:42 | 8.86404 | 9.62712 | 38933 ft | 432 kts | 160° |
| 2026-04-27 22:43 | 8.80160 | 9.64849 | 38928 ft | 432 kts | 160° |
| 2026-04-27 22:43 | 8.73914 | 9.66987 | 38919 ft | 432 kts | 160° |
| 2026-04-27 22:44 | 8.67651 | 9.69129 | 38922 ft | 431 kts | 160° |
| 2026-04-27 22:44 | 8.61304 | 9.71299 | 38921 ft | 433 kts | 160° |
| 2026-04-27 22:45 | 8.54933 | 9.73478 | 38913 ft | 437 kts | 160° |
| 2026-04-27 22:45 | 8.48480 | 9.75688 | 38916 ft | 441 kts | 160° |
| 2026-04-27 22:46 | 8.41994 | 9.77907 | 38903 ft | 444 kts | 159° |
| 2026-04-27 22:46 | 8.35443 | 9.80148 | 38903 ft | 447 kts | 159° |
| 2026-04-27 22:47 | 8.28914 | 9.82381 | 38895 ft | 450 kts | 159° |
| 2026-04-27 22:47 | 8.22303 | 9.84641 | 38890 ft | 452 kts | 159° |
| 2026-04-27 22:48 | 8.15690 | 9.86901 | 38892 ft | 454 kts | 159° |
| 2026-04-27 22:48 | 8.09013 | 9.89182 | 38895 ft | 456 kts | 159° |
| 2026-04-27 22:49 | 8.02339 | 9.91461 | 38894 ft | 458 kts | 159° |
| 2026-04-27 22:49 | 7.95627 | 9.93753 | 38898 ft | 459 kts | 159° |
| 2026-04-27 22:50 | 7.88978 | 9.96022 | 38905 ft | 460 kts | 159° |
| 2026-04-27 22:50 | 7.82304 | 9.98300 | 38899 ft | 461 kts | 159° |
| 2026-04-27 22:51 | 7.75617 | 10.00582 | 38900 ft | 462 kts | 159° |
| 2026-04-27 22:51 | 7.72291 | 10.01716 | 38296 ft | 453 kts | 159° |
| 2026-04-27 22:51 | 7.69164 | 10.02782 | 37650 ft | 440 kts | 159° |
| 2026-04-27 22:51 | 7.66010 | 10.03858 | 36992 ft | 428 kts | 159° |
| 2026-04-27 22:52 | 7.62941 | 10.04904 | 36334 ft | 416 kts | 159° |
| 2026-04-27 22:52 | 7.59947 | 10.05925 | 35672 ft | 406 kts | 159° |
| 2026-04-27 22:52 | 7.57042 | 10.06915 | 35012 ft | 397 kts | 159° |
| 2026-04-27 22:52 | 7.54223 | 10.07886 | 34370 ft | 389 kts | 159° |
| 2026-04-27 22:53 | 7.51385 | 10.08863 | 33718 ft | 386 kts | 159° |
| 2026-04-27 22:53 | 7.48608 | 10.09819 | 33082 ft | 385 kts | 159° |
| 2026-04-27 22:53 | 7.45802 | 10.10785 | 32480 ft | 386 kts | 159° |
| 2026-04-27 22:53 | 7.42970 | 10.11760 | 31910 ft | 394 kts | 159° |
| 2026-04-27 22:54 | 7.39992 | 10.12785 | 31358 ft | 414 kts | 159° |
| 2026-04-27 22:54 | 7.36916 | 10.13843 | 30809 ft | 431 kts | 159° |
| 2026-04-27 22:54 | 7.33690 | 10.14953 | 30247 ft | 447 kts | 159° |
| 2026-04-27 22:54 | 7.30341 | 10.16105 | 29683 ft | 461 kts | 159° |
| 2026-04-27 22:55 | 7.26936 | 10.17276 | 29142 ft | 473 kts | 159° |
| 2026-04-27 22:55 | 7.23527 | 10.18447 | 28729 ft | 476 kts | 159° |
| 2026-04-27 22:55 | 7.20078 | 10.19633 | 28365 ft | 475 kts | 159° |
| 2026-04-27 22:55 | 7.16629 | 10.20818 | 27893 ft | 469 kts | 159° |
| 2026-04-27 22:56 | 7.13300 | 10.21962 | 27406 ft | 464 kts | 159° |
| 2026-04-27 22:56 | 7.10027 | 10.23311 | 26859 ft | 459 kts | 152° |
| 2026-04-27 22:56 | 7.06946 | 10.24817 | 26329 ft | 456 kts | 152° |
| 2026-04-27 22:56 | 7.03818 | 10.26330 | 25778 ft | 452 kts | 152° |
| 2026-04-27 22:57 | 7.00755 | 10.27807 | 24976 ft | 453 kts | 152° |
| 2026-04-27 22:57 | 6.97678 | 10.29291 | 24616 ft | 444 kts | 152° |
| 2026-04-27 22:57 | 6.94695 | 10.30729 | 24272 ft | 436 kts | 152° |
| 2026-04-27 22:57 | 6.91675 | 10.32116 | 23806 ft | 434 kts | 158° |
| 2026-04-27 22:58 | 6.88568 | 10.32667 | 23304 ft | 437 kts | 177° |
| 2026-04-27 22:58 | 6.85219 | 10.32232 | 22770 ft | 437 kts | 188° |
| 2026-04-27 22:58 | 6.81950 | 10.31662 | 22239 ft | 433 kts | 187° |
| 2026-04-27 22:58 | 6.78682 | 10.31110 | 21718 ft | 429 kts | 187° |
| 2026-04-27 22:59 | 6.75432 | 10.30565 | 21193 ft | 424 kts | 187° |
| 2026-04-27 22:59 | 6.72266 | 10.30035 | 20675 ft | 420 kts | 187° |
| 2026-04-27 22:59 | 6.69105 | 10.29506 | 20160 ft | 417 kts | 187° |
| 2026-04-27 22:59 | 6.65982 | 10.28984 | 19590 ft | 415 kts | 187° |
| 2026-04-27 23:00 | 6.59637 | 10.27923 | 18282 ft | 414 kts | 187° |
| 2026-04-27 23:00 | 6.56496 | 10.27398 | 17628 ft | 412 kts | 186° |
| 2026-04-27 23:00 | 6.53378 | 10.26877 | 16987 ft | 410 kts | 186° |
| 2026-04-27 23:01 | 6.50247 | 10.26353 | 16337 ft | 408 kts | 186° |
| 2026-04-27 23:01 | 6.47128 | 10.25831 | 15701 ft | 405 kts | 186° |
| 2026-04-27 23:01 | 6.44173 | 10.25337 | 15091 ft | 403 kts | 186° |
| 2026-04-27 23:01 | 6.41119 | 10.24827 | 14458 ft | 400 kts | 186° |
| 2026-04-27 23:02 | 6.38058 | 10.24316 | 13808 ft | 397 kts | 186° |
| 2026-04-27 23:02 | 6.35048 | 10.23812 | 13162 ft | 391 kts | 186° |
| 2026-04-27 23:02 | 6.32119 | 10.23323 | 12512 ft | 375 kts | 186° |
| 2026-04-27 23:02 | 6.29306 | 10.22853 | 11857 ft | 363 kts | 186° |
| 2026-04-27 23:03 | 6.26630 | 10.22406 | 11225 ft | 354 kts | 185° |
| 2026-04-27 23:03 | 6.23985 | 10.21964 | 10584 ft | 347 kts | 185° |
| 2026-04-27 23:03 | 6.21333 | 10.21522 | 9921 ft | 342 kts | 185° |
| 2026-04-27 23:03 | 6.18719 | 10.21085 | 9206 ft | 331 kts | 185° |
| 2026-04-27 23:04 | 6.16259 | 10.20674 | 8511 ft | 308 kts | 186° |
| 2026-04-27 23:04 | 6.13982 | 10.20295 | 7834 ft | 292 kts | 186° |
| 2026-04-27 23:04 | 6.11798 | 10.19931 | 7180 ft | 279 kts | 187° |
| 2026-04-27 23:04 | 6.09738 | 10.19587 | 6770 ft | 260 kts | 187° |
| 2026-04-27 23:05 | 6.07813 | 10.19265 | 6609 ft | 247 kts | 187° |
| 2026-04-27 23:05 | 6.05984 | 10.18961 | 6417 ft | 242 kts | 187° |
| 2026-04-27 23:05 | 6.04255 | 10.18672 | 6243 ft | 239 kts | 187° |
| 2026-04-27 23:05 | 6.02540 | 10.18385 | 6074 ft | 209 kts | 187° |
| 2026-04-27 23:06 | 6.01078 | 10.18140 | 5914 ft | 177 kts | 187° |
| 2026-04-27 23:06 | 5.99747 | 10.17920 | 5708 ft | 176 kts | 187° |
| 2026-04-27 23:06 | 5.98486 | 10.17467 | 5479 ft | 177 kts | 220° |
| 2026-04-27 23:06 | 5.97891 | 10.16342 | 5323 ft | 164 kts | 267° |
| 2026-04-27 23:07 | 5.98051 | 10.15112 | 5145 ft | 156 kts | 282° |
| 2026-04-27 23:07 | 5.98242 | 10.13926 | 4993 ft | 158 kts | 290° |
| 2026-04-27 23:07 | 5.99009 | 10.13057 | 4830 ft | 149 kts | 338° |
| 2026-04-27 23:07 | 6.00116 | 10.12845 | 4680 ft | 143 kts | 354° |
| 2026-04-27 23:08 | 6.01195 | 10.12681 | 4510 ft | 141 kts | 353° |
| 2026-04-27 23:08 | 6.02232 | 10.12517 | 4352 ft | 133 kts | 353° |
| 2026-04-27 23:08 | 6.03261 | 10.12361 | 4150 ft | 134 kts | 354° |
| 2026-04-27 23:08 | 6.04160 | 10.12227 | 4092 ft | 84 kts | 352° |
| 2026-04-27 23:09 | 6.04518 | 10.12178 | 4078 ft | 8 kts | 351° |
| 2026-04-27 23:09 | 6.04505 | 10.12160 | 4079 ft | 12 kts | 167° |
| 2026-04-27 23:09 | 6.04317 | 10.12200 | 4086 ft | 27 kts | 168° |
| 2026-04-27 23:09 | 6.04113 | 10.12235 | 4093 ft | 27 kts | 171° |
| 2026-04-27 23:10 | 6.03906 | 10.12267 | 4100 ft | 27 kts | 172° |
| 2026-04-27 23:10 | 6.03742 | 10.12287 | 4105 ft | 16 kts | 193° |
| 2026-04-27 23:10 | 6.03700 | 10.12182 | 4109 ft | 16 kts | 262° |
| 2026-04-27 23:10 | 6.03608 | 10.12132 | 4113 ft | 12 kts | 210° |
| 2026-04-27 23:11 | 6.03595 | 10.12114 | 4114 ft | 0 kts | 252° |
| 2026-04-27 23:11 | 6.03592 | 10.12102 | 4115 ft | 2 kts | 261° |
| 2026-04-27 23:11 | 6.03591 | 10.12096 | 4115 ft | 0 kts | 261° |